createdAt,value
2023-04-08T00:00:07.979Z,69.85
2023-04-08T00:05:08.096Z,69.85
2023-04-08T00:10:08.174Z,69.85
2023-04-08T00:15:08.235Z,69.87
2023-04-08T00:20:08.349Z,69.87
2023-04-08T00:25:08.412Z,69.9
2023-04-08T00:30:08.447Z,69.91
2023-04-08T00:35:08.473Z,69.9
2023-04-08T00:40:08.525Z,69.94
2023-04-08T00:45:08.681Z,69.93
2023-04-08T00:50:08.713Z,69.94
2023-04-08T00:55:08.782Z,69.95
2023-04-08T01:00:08.872Z,69.99
2023-04-08T01:05:08.882Z,70.0
2023-04-08T01:10:08.923Z,69.98
2023-04-08T01:15:09.015Z,70.02
2023-04-08T01:20:08.111Z,70.02
2023-04-08T01:25:08.132Z,70.03
2023-04-08T01:30:08.209Z,70.03
2023-04-08T01:35:08.290Z,70.03
2023-04-08T01:40:08.383Z,70.03
2023-04-08T01:45:08.402Z,70.04
2023-04-08T01:50:08.487Z,70.04
2023-04-08T01:55:08.554Z,70.06
2023-04-08T02:00:08.589Z,70.05
2023-04-08T02:05:08.657Z,70.05
2023-04-08T02:10:08.729Z,70.05
2023-04-08T02:15:08.756Z,70.08
2023-04-08T02:20:08.792Z,70.06
2023-04-08T02:25:08.818Z,70.1
2023-04-08T02:30:08.869Z,70.1
2023-04-08T02:35:08.919Z,70.1
2023-04-08T02:40:08.937Z,70.11
2023-04-08T02:45:08.013Z,70.11
2023-04-08T02:50:08.034Z,70.13
2023-04-08T02:55:08.055Z,70.13
2023-04-08T03:00:08.095Z,70.15
2023-04-08T03:05:08.204Z,70.15
2023-04-08T03:10:08.274Z,70.15
2023-04-08T03:15:08.346Z,70.17
2023-04-08T03:20:08.388Z,70.18
2023-04-08T03:25:08.468Z,70.2
2023-04-08T03:30:08.592Z,70.19
2023-04-08T03:35:08.661Z,70.21
2023-04-08T03:40:08.723Z,70.23
2023-04-08T03:45:08.777Z,70.22
2023-04-08T03:50:08.868Z,70.24
2023-04-08T03:55:08.882Z,70.27
2023-04-08T04:00:08.887Z,70.27
2023-04-08T04:05:03.233Z,70.28
2023-04-08T04:10:02.601Z,70.29
2023-04-08T04:15:03.029Z,70.29
2023-04-08T04:20:02.372Z,70.29
2023-04-08T04:25:02.707Z,70.32
2023-04-08T04:30:02.984Z,70.33
2023-04-08T04:35:02.118Z,70.31
2023-04-08T04:40:02.307Z,70.34
2023-04-08T04:45:02.537Z,70.34
2023-04-08T04:50:02.778Z,70.35
2023-04-08T04:55:03.081Z,70.36
2023-04-08T05:00:04.002Z,70.36
2023-04-08T05:05:02.722Z,70.38
2023-04-08T05:10:02.995Z,70.39
2023-04-08T05:15:02.251Z,70.4
2023-04-08T05:20:02.535Z,70.41
2023-04-08T05:25:02.795Z,70.41
2023-04-08T05:30:03.015Z,70.41
2023-04-08T05:35:02.323Z,70.44
2023-04-08T05:40:02.620Z,70.47
2023-04-08T05:45:03.021Z,70.48
2023-04-08T05:50:02.212Z,70.47
2023-04-08T05:55:02.701Z,70.5
2023-04-08T06:00:02.932Z,70.5
2023-04-08T06:05:02.215Z,70.5
2023-04-08T06:10:02.597Z,70.52
2023-04-08T06:15:02.869Z,70.52
2023-04-08T06:20:03.208Z,70.52
2023-04-08T06:25:02.685Z,70.53
2023-04-08T06:30:02.877Z,70.52
2023-04-08T06:35:03.435Z,70.54
2023-04-08T06:40:02.786Z,70.54
2023-04-08T06:45:03.122Z,70.54
2023-04-08T06:50:02.319Z,70.55
2023-04-08T06:55:02.598Z,70.52
2023-04-08T07:00:02.811Z,70.49
2023-04-08T07:05:03.088Z,70.48
2023-04-08T07:10:02.432Z,70.46
2023-04-08T07:15:02.687Z,70.41
2023-04-08T07:20:03.138Z,70.4
2023-04-08T07:25:02.303Z,70.35
2023-04-08T07:30:02.560Z,70.34
2023-04-08T07:35:02.728Z,70.29
2023-04-08T07:40:02.918Z,70.29
2023-04-08T07:45:03.058Z,70.23
2023-04-08T07:50:02.205Z,70.16
2023-04-08T07:55:02.410Z,70.11
2023-04-08T08:00:02.796Z,70.08
2023-04-08T08:05:03.164Z,70.02
2023-04-08T08:10:02.393Z,69.98
2023-04-08T08:15:02.616Z,69.96
2023-04-08T08:20:02.904Z,69.96
2023-04-08T08:25:03.023Z,69.87
2023-04-08T08:30:02.272Z,69.83
2023-04-08T08:35:02.440Z,69.83
2023-04-08T08:40:02.654Z,69.72
2023-04-08T08:45:02.851Z,69.64
2023-04-08T08:50:03.032Z,69.58
2023-04-08T08:55:03.322Z,69.54
2023-04-08T09:00:02.319Z,69.53
2023-04-08T09:05:02.665Z,69.53
2023-04-08T09:10:02.928Z,69.46
2023-04-08T09:15:02.255Z,69.43
2023-04-08T09:20:02.338Z,69.39
2023-04-08T09:25:02.524Z,69.31
2023-04-08T09:30:02.726Z,69.25
2023-04-08T09:35:03.940Z,69.22
2023-04-08T09:40:02.910Z,69.16
2023-04-08T09:45:03.021Z,69.1
2023-04-08T09:50:02.160Z,69.05
2023-04-08T09:55:02.410Z,68.97
2023-04-08T10:00:02.513Z,68.93
2023-04-08T10:05:02.815Z,68.87
2023-04-08T10:10:03.242Z,68.83
2023-04-08T10:15:02.437Z,68.77
2023-04-08T10:20:02.674Z,68.74
2023-04-08T10:25:02.898Z,68.67
2023-04-08T10:30:02.992Z,68.65
2023-04-08T10:35:02.119Z,68.6
2023-04-08T10:40:02.241Z,68.59
2023-04-08T10:45:02.418Z,68.57
2023-04-08T10:50:02.543Z,68.55
2023-04-08T10:55:02.704Z,68.54
2023-04-08T11:00:02.900Z,68.49
2023-04-08T11:05:03.033Z,68.5
2023-04-08T11:10:02.234Z,68.54
2023-04-08T11:15:02.413Z,68.54
2023-04-08T11:20:02.569Z,68.58
2023-04-08T11:25:02.763Z,68.59
2023-04-08T11:30:02.886Z,68.59
2023-04-08T11:35:03.046Z,68.59
2023-04-08T11:40:02.260Z,68.61
2023-04-08T11:45:02.392Z,68.59
2023-04-08T11:50:02.576Z,68.52
2023-04-08T11:55:02.793Z,68.52
2023-04-08T12:00:03.028Z,68.45
2023-04-08T12:05:02.296Z,68.35
2023-04-08T12:10:02.515Z,68.29
2023-04-08T12:15:02.692Z,68.25
2023-04-08T12:20:02.827Z,68.22
2023-04-08T12:25:02.999Z,68.18
2023-04-08T12:30:02.172Z,68.18
2023-04-08T12:35:02.446Z,68.16
2023-04-08T12:40:02.805Z,68.11
2023-04-08T12:45:03.137Z,68.11
2023-04-08T12:50:02.442Z,68.1
2023-04-08T12:55:02.605Z,68.08
2023-04-08T13:00:02.839Z,68.1
2023-04-08T13:05:03.165Z,68.12
2023-04-08T13:10:02.409Z,68.14
2023-04-08T13:15:02.689Z,68.14
2023-04-08T13:20:02.980Z,68.15
2023-04-08T13:25:02.243Z,68.19
2023-04-08T13:30:02.445Z,68.17
2023-04-08T13:35:02.597Z,68.19
2023-04-08T13:40:02.752Z,68.18
2023-04-08T13:45:02.969Z,68.19
2023-04-08T13:50:02.074Z,68.17
2023-04-08T13:55:02.278Z,68.16
2023-04-08T14:00:02.498Z,68.16
2023-04-08T14:05:02.648Z,68.16
2023-04-08T14:10:02.868Z,68.16
2023-04-08T14:15:03.025Z,68.06
2023-04-08T14:20:02.275Z,68.06
2023-04-08T14:25:02.438Z,68.04
2023-04-08T14:30:02.604Z,68.03
2023-04-08T14:35:02.813Z,68.06
2023-04-08T14:40:02.961Z,68.06
2023-04-08T14:45:02.419Z,68.08
2023-04-08T14:50:02.640Z,68.08
2023-04-08T14:55:03.832Z,68.1
2023-04-08T15:00:02.953Z,68.1
2023-04-08T15:05:02.179Z,68.21
2023-04-08T15:10:02.371Z,68.24
2023-04-08T15:15:02.604Z,68.29
2023-04-08T15:20:02.896Z,68.3
2023-04-08T15:25:03.003Z,68.26
2023-04-08T15:30:02.349Z,68.33
2023-04-08T15:35:02.620Z,68.37
2023-04-08T15:40:02.915Z,68.37
2023-04-08T15:45:03.041Z,68.41
2023-04-08T15:50:02.351Z,68.41
2023-04-08T15:55:02.558Z,68.43
2023-04-08T16:00:02.939Z,68.43
2023-04-08T16:05:02.089Z,68.41
2023-04-08T16:10:02.389Z,68.48
2023-04-08T16:15:02.577Z,68.52
2023-04-08T16:20:02.806Z,68.52
2023-04-08T16:25:03.195Z,68.6
2023-04-08T16:30:02.334Z,68.65
2023-04-08T16:35:02.525Z,68.68
2023-04-08T16:40:03.084Z,68.74
2023-04-08T16:45:02.252Z,68.77
2023-04-08T16:50:02.417Z,68.82
2023-04-08T16:55:02.558Z,68.84
2023-04-08T17:00:02.826Z,68.84
2023-04-08T17:05:03.039Z,68.96
2023-04-08T17:10:02.258Z,69.0
2023-04-08T17:15:02.747Z,69.04
2023-04-08T17:20:02.921Z,69.04
2023-04-08T17:25:03.180Z,69.12
2023-04-08T17:30:02.354Z,69.16
2023-04-08T17:35:02.609Z,69.21
2023-04-08T17:40:02.971Z,69.24
2023-04-08T17:45:02.226Z,69.28
2023-04-08T17:50:02.536Z,69.31
2023-04-08T17:55:02.710Z,69.36
2023-04-08T18:00:02.857Z,69.37
2023-04-08T18:05:02.999Z,69.37
2023-04-08T18:10:02.264Z,69.47
2023-04-08T18:15:02.476Z,69.49
2023-04-08T18:20:02.777Z,69.51
2023-04-08T18:25:02.911Z,69.54
2023-04-08T18:30:03.082Z,69.56
2023-04-08T18:35:02.261Z,69.6
2023-04-08T18:40:02.536Z,69.61
2023-04-08T18:45:02.769Z,69.64
2023-04-08T18:50:03.048Z,69.64
2023-04-08T18:55:02.240Z,69.7
2023-04-08T19:00:02.600Z,69.7
2023-04-08T19:05:02.777Z,69.72
2023-04-08T19:10:02.923Z,69.74
2023-04-08T19:15:02.212Z,69.75
2023-04-08T19:20:02.570Z,69.75
2023-04-08T19:25:02.870Z,69.76
2023-04-08T19:30:03.077Z,69.8
2023-04-08T19:35:02.268Z,69.8
2023-04-08T19:40:02.811Z,69.79
2023-04-08T19:45:02.975Z,69.82
2023-04-08T19:50:02.164Z,69.83
2023-04-08T19:55:02.420Z,69.84
2023-04-08T20:00:02.738Z,69.86
2023-04-08T20:05:02.839Z,69.85
2023-04-08T20:10:02.986Z,69.85
2023-04-08T20:15:02.091Z,69.87
2023-04-08T20:20:02.342Z,69.87
2023-04-08T20:25:02.458Z,69.88
2023-04-08T20:30:02.621Z,69.88
2023-04-08T20:35:02.737Z,69.89
2023-04-08T20:40:02.926Z,69.9
2023-04-08T20:45:02.144Z,69.91
2023-04-08T20:50:02.356Z,69.92
2023-04-08T20:55:02.544Z,69.93
2023-04-08T21:00:02.812Z,69.93
2023-04-08T21:05:03.046Z,69.94
2023-04-08T21:10:02.257Z,69.93
2023-04-08T21:15:02.417Z,69.93
2023-04-08T21:20:02.524Z,69.93
2023-04-08T21:25:02.665Z,69.93
2023-04-08T21:30:03.165Z,69.96
2023-04-08T21:35:02.307Z,69.96
2023-04-08T21:40:02.575Z,69.96
2023-04-08T21:45:02.721Z,69.96
2023-04-08T21:50:02.888Z,69.97
2023-04-08T21:55:03.178Z,69.97
2023-04-08T22:00:02.431Z,69.98
2023-04-08T22:05:15.473Z,69.96
2023-04-08T22:10:08.894Z,69.98
2023-04-08T22:15:08.925Z,69.97
2023-04-08T22:20:08.969Z,69.99
2023-04-08T22:25:08.130Z,70.0
2023-04-08T22:30:08.185Z,70.01
2023-04-08T22:35:08.203Z,69.99
2023-04-08T22:40:08.243Z,69.98
2023-04-08T22:45:08.299Z,69.99
2023-04-08T22:50:08.412Z,70.0
2023-04-08T22:55:08.446Z,70.01
2023-04-08T23:01:12.667Z,69.99
2023-04-08T23:05:08.740Z,70.03
2023-04-08T23:10:08.512Z,70.01
2023-04-08T23:15:08.617Z,70.01
2023-04-08T23:20:08.775Z,70.01
2023-04-08T23:25:08.802Z,70.03
2023-04-08T23:30:08.862Z,70.03
2023-04-08T23:35:08.932Z,70.02
2023-04-08T23:40:07.953Z,70.04
2023-04-08T23:45:08.014Z,70.03
2023-04-08T23:50:08.115Z,70.02
2023-04-08T23:55:08.224Z,70.05
